sensor_id;sensor_type;location;lat;lon;timestamp;pressure;altitude;pressure_sealevel;temperature;humidity
19783;BME280;10051;40.294;-3.754;2023-04-26T00:01:11;94138.53;;;21.53;36.46
19783;BME280;10051;40.294;-3.754;2023-04-26T00:03:39;94150.09;;;21.57;36.59
19783;BME280;10051;40.294;-3.754;2023-04-26T00:06:05;94140.88;;;21.54;36.58
19783;BME280;10051;40.294;-3.754;2023-04-26T00:08:34;94156.75;;;21.63;36.57
19783;BME280;10051;40.294;-3.754;2023-04-26T00:11:00;94132.69;;;21.47;36.77
19783;BME280;10051;40.294;-3.754;2023-04-26T00:13:26;94155.44;;;21.57;36.75
19783;BME280;10051;40.294;-3.754;2023-04-26T00:15:51;94146.81;;;21.48;36.84
19783;BME280;10051;40.294;-3.754;2023-04-26T00:18:17;94095.81;;;21.21;36.64
19783;BME280;10051;40.294;-3.754;2023-04-26T00:20:42;94148.38;;;21.49;36.81
19783;BME280;10051;40.294;-3.754;2023-04-26T00:23:08;94108.75;;;21.19;36.75
19783;BME280;10051;40.294;-3.754;2023-04-26T00:25:35;94152.03;;;21.41;36.92
19783;BME280;10051;40.294;-3.754;2023-04-26T00:28:01;94115.81;;;21.27;36.85
19783;BME280;10051;40.294;-3.754;2023-04-26T00:30:26;94147.94;;;21.47;36.92
19783;BME280;10051;40.294;-3.754;2023-04-26T00:32:52;94134.97;;;21.29;37.01
19783;BME280;10051;40.294;-3.754;2023-04-26T00:35:18;94106.13;;;21.03;37.16
19783;BME280;10051;40.294;-3.754;2023-04-26T00:37:43;94107.22;;;21.18;36.71
19783;BME280;10051;40.294;-3.754;2023-04-26T00:40:09;94114.09;;;21.19;37.15
19783;BME280;10051;40.294;-3.754;2023-04-26T00:42:37;94123.94;;;21.15;37.23
19783;BME280;10051;40.294;-3.754;2023-04-26T00:45:03;94135.56;;;21.22;37.33
19783;BME280;10051;40.294;-3.754;2023-04-26T00:47:29;94138.25;;;21.22;37.20
19783;BME280;10051;40.294;-3.754;2023-04-26T00:49:55;94119.72;;;21.14;37.47
19783;BME280;10051;40.294;-3.754;2023-04-26T00:52:21;94121.25;;;21.15;37.40
19783;BME280;10051;40.294;-3.754;2023-04-26T00:54:50;94107.31;;;21.05;37.40
19783;BME280;10051;40.294;-3.754;2023-04-26T00:57:16;94112.22;;;21.03;37.55
19783;BME280;10051;40.294;-3.754;2023-04-26T00:59:41;94110.75;;;21.06;37.46
19783;BME280;10051;40.294;-3.754;2023-04-26T01:02:07;94071.69;;;20.69;37.90
19783;BME280;10051;40.294;-3.754;2023-04-26T01:04:33;94103.00;;;21.01;37.73
19783;BME280;10051;40.294;-3.754;2023-04-26T01:07:02;94124.63;;;21.12;37.77
19783;BME280;10051;40.294;-3.754;2023-04-26T01:09:31;94117.31;;;21.08;37.84
19783;BME280;10051;40.294;-3.754;2023-04-26T01:11:57;94102.16;;;20.97;37.91
19783;BME280;10051;40.294;-3.754;2023-04-26T01:14:23;94114.63;;;21.08;38.02
19783;BME280;10051;40.294;-3.754;2023-04-26T01:16:49;94104.72;;;21.09;38.13
19783;BME280;10051;40.294;-3.754;2023-04-26T01:19:15;94100.25;;;20.97;38.08
19783;BME280;10051;40.294;-3.754;2023-04-26T01:21:41;94101.38;;;20.96;38.40
19783;BME280;10051;40.294;-3.754;2023-04-26T01:24:12;94096.72;;;20.93;38.37
19783;BME280;10051;40.294;-3.754;2023-04-26T01:26:38;93972.03;;;20.17;38.46
19783;BME280;10051;40.294;-3.754;2023-04-26T01:29:17;94088.28;;;20.91;38.62
19783;BME280;10051;40.294;-3.754;2023-04-26T01:31:43;94090.34;;;20.98;38.81
19783;BME280;10051;40.294;-3.754;2023-04-26T01:34:12;94086.03;;;20.93;38.75
19783;BME280;10051;40.294;-3.754;2023-04-26T01:36:38;94051.81;;;20.67;38.60
19783;BME280;10051;40.294;-3.754;2023-04-26T01:39:03;94092.66;;;20.99;38.85
19783;BME280;10051;40.294;-3.754;2023-04-26T01:41:29;94077.41;;;20.84;38.78
19783;BME280;10051;40.294;-3.754;2023-04-26T01:43:55;94085.59;;;20.91;39.10
19783;BME280;10051;40.294;-3.754;2023-04-26T01:46:21;94041.44;;;20.65;39.01
19783;BME280;10051;40.294;-3.754;2023-04-26T01:48:47;94066.78;;;20.71;39.13
19783;BME280;10051;40.294;-3.754;2023-04-26T01:51:12;94051.63;;;20.75;38.70
19783;BME280;10051;40.294;-3.754;2023-04-26T01:56:03;94051.44;;;20.68;39.18
19783;BME280;10051;40.294;-3.754;2023-04-26T01:58:30;94072.66;;;20.77;38.97
19783;BME280;10051;40.294;-3.754;2023-04-26T02:01:03;93988.13;;;20.20;39.33
19783;BME280;10051;40.294;-3.754;2023-04-26T02:03:29;94076.56;;;20.79;39.59
19783;BME280;10051;40.294;-3.754;2023-04-26T02:05:55;94037.06;;;20.57;39.52
19783;BME280;10051;40.294;-3.754;2023-04-26T02:08:21;94012.53;;;20.35;39.59
19783;BME280;10051;40.294;-3.754;2023-04-26T02:10:46;94038.03;;;20.48;39.75
19783;BME280;10051;40.294;-3.754;2023-04-26T02:13:13;94061.13;;;20.73;39.52
19783;BME280;10051;40.294;-3.754;2023-04-26T02:15:39;94002.69;;;20.39;39.52
19783;BME280;10051;40.294;-3.754;2023-04-26T02:18:05;94058.34;;;20.69;39.70
19783;BME280;10051;40.294;-3.754;2023-04-26T02:20:30;94038.53;;;20.54;39.86
19783;BME280;10051;40.294;-3.754;2023-04-26T02:22:56;94061.00;;;20.69;39.81
19783;BME280;10051;40.294;-3.754;2023-04-26T02:25:22;93995.19;;;20.29;40.05
19783;BME280;10051;40.294;-3.754;2023-04-26T02:27:47;94056.03;;;20.68;39.86
19783;BME280;10051;40.294;-3.754;2023-04-26T02:30:13;94021.47;;;20.43;40.03
19783;BME280;10051;40.294;-3.754;2023-04-26T02:32:38;93998.56;;;20.26;39.93
19783;BME280;10051;40.294;-3.754;2023-04-26T02:35:04;94029.16;;;20.44;39.93
19783;BME280;10051;40.294;-3.754;2023-04-26T02:37:31;94037.59;;;20.46;40.20
19783;BME280;10051;40.294;-3.754;2023-04-26T02:39:57;94043.25;;;20.45;40.30
19783;BME280;10051;40.294;-3.754;2023-04-26T02:42:23;94019.22;;;20.29;40.31
19783;BME280;10051;40.294;-3.754;2023-04-26T02:44:49;94030.25;;;20.27;40.57
19783;BME280;10051;40.294;-3.754;2023-04-26T02:47:15;94043.88;;;20.38;40.34
19783;BME280;10051;40.294;-3.754;2023-04-26T02:49:41;94058.84;;;20.43;40.64
19783;BME280;10051;40.294;-3.754;2023-04-26T02:52:06;94038.72;;;20.29;40.82
19783;BME280;10051;40.294;-3.754;2023-04-26T02:54:32;94049.97;;;20.39;40.43
19783;BME280;10051;40.294;-3.754;2023-04-26T02:56:57;94051.00;;;20.34;40.73
19783;BME280;10051;40.294;-3.754;2023-04-26T02:59:23;94049.53;;;20.36;40.77
19783;BME280;10051;40.294;-3.754;2023-04-26T03:01:48;93957.16;;;19.71;40.71
19783;BME280;10051;40.294;-3.754;2023-04-26T03:04:14;93992.94;;;19.99;40.55
19783;BME280;10051;40.294;-3.754;2023-04-26T03:06:41;94041.38;;;20.29;40.97
19783;BME280;10051;40.294;-3.754;2023-04-26T03:09:07;94033.19;;;20.22;40.91
19783;BME280;10051;40.294;-3.754;2023-04-26T03:11:33;94009.31;;;20.13;40.84
19783;BME280;10051;40.294;-3.754;2023-04-26T03:13:58;93996.72;;;19.98;40.90
19783;BME280;10051;40.294;-3.754;2023-04-26T03:16:26;94014.63;;;20.13;40.98
19783;BME280;10051;40.294;-3.754;2023-04-26T03:18:52;94047.22;;;20.35;41.15
19783;BME280;10051;40.294;-3.754;2023-04-26T03:21:18;94012.25;;;20.08;41.24
19783;BME280;10051;40.294;-3.754;2023-04-26T03:23:44;94044.13;;;20.33;41.04
19783;BME280;10051;40.294;-3.754;2023-04-26T03:26:10;94041.59;;;20.08;41.20
19783;BME280;10051;40.294;-3.754;2023-04-26T03:28:36;94052.47;;;19.87;42.03
19783;BME280;10051;40.294;-3.754;2023-04-26T03:31:02;94000.22;;;19.29;42.51
19783;BME280;10051;40.294;-3.754;2023-04-26T03:33:29;94046.72;;;19.31;43.43
19783;BME280;10051;40.294;-3.754;2023-04-26T03:35:58;94039.84;;;19.30;43.32
19783;BME280;10051;40.294;-3.754;2023-04-26T03:38:23;94060.03;;;19.44;43.52
19783;BME280;10051;40.294;-3.754;2023-04-26T03:40:52;94049.22;;;19.53;43.48
19783;BME280;10051;40.294;-3.754;2023-04-26T03:43:17;94031.34;;;19.00;43.99
19783;BME280;10051;40.294;-3.754;2023-04-26T03:45:46;94052.44;;;19.05;44.46
19783;BME280;10051;40.294;-3.754;2023-04-26T03:48:11;94042.88;;;19.04;44.68
19783;BME280;10051;40.294;-3.754;2023-04-26T03:50:37;94051.22;;;19.02;44.46
19783;BME280;10051;40.294;-3.754;2023-04-26T03:53:03;94013.16;;;18.52;45.20
19783;BME280;10051;40.294;-3.754;2023-04-26T03:55:29;94000.16;;;18.38;45.62
19783;BME280;10051;40.294;-3.754;2023-04-26T03:57:54;94009.25;;;18.50;45.60
19783;BME280;10051;40.294;-3.754;2023-04-26T04:00:20;94013.13;;;18.40;45.78
19783;BME280;10051;40.294;-3.754;2023-04-26T04:02:45;94017.34;;;18.28;45.84
19783;BME280;10051;40.294;-3.754;2023-04-26T04:05:11;94053.16;;;18.43;46.01
19783;BME280;10051;40.294;-3.754;2023-04-26T04:07:37;94053.41;;;18.51;45.87
19783;BME280;10051;40.294;-3.754;2023-04-26T04:10:02;94040.84;;;18.26;46.40
19783;BME280;10051;40.294;-3.754;2023-04-26T04:12:28;94009.19;;;18.00;46.73
19783;BME280;10051;40.294;-3.754;2023-04-26T04:14:56;94056.47;;;18.28;46.48
19783;BME280;10051;40.294;-3.754;2023-04-26T04:17:21;94047.56;;;18.11;46.43
19783;BME280;10051;40.294;-3.754;2023-04-26T04:19:47;94061.97;;;18.10;46.79
19783;BME280;10051;40.294;-3.754;2023-04-26T04:22:13;94016.69;;;17.98;46.20
19783;BME280;10051;40.294;-3.754;2023-04-26T04:24:38;94020.72;;;18.04;46.22
19783;BME280;10051;40.294;-3.754;2023-04-26T04:27:05;94007.25;;;17.88;46.33
19783;BME280;10051;40.294;-3.754;2023-04-26T04:29:30;94051.56;;;18.18;46.07
19783;BME280;10051;40.294;-3.754;2023-04-26T04:31:57;94063.38;;;18.29;46.10
19783;BME280;10051;40.294;-3.754;2023-04-26T04:34:22;94066.13;;;18.33;45.76
19783;BME280;10051;40.294;-3.754;2023-04-26T04:36:48;94024.63;;;18.19;45.93
19783;BME280;10051;40.294;-3.754;2023-04-26T04:39:15;94040.19;;;18.42;45.32
19783;BME280;10051;40.294;-3.754;2023-04-26T04:41:42;94058.53;;;18.68;45.09
19783;BME280;10051;40.294;-3.754;2023-04-26T04:44:14;94058.75;;;18.76;45.68
19783;BME280;10051;40.294;-3.754;2023-04-26T04:46:43;94057.41;;;18.82;45.58
19783;BME280;10051;40.294;-3.754;2023-04-26T04:49:10;94026.00;;;18.63;46.01
19783;BME280;10051;40.294;-3.754;2023-04-26T04:51:37;94063.41;;;18.91;46.30
19783;BME280;10051;40.294;-3.754;2023-04-26T04:54:17;94059.41;;;18.85;46.44
19783;BME280;10051;40.294;-3.754;2023-04-26T04:56:43;94056.31;;;18.70;46.44
19783;BME280;10051;40.294;-3.754;2023-04-26T04:59:10;94065.72;;;18.68;46.32
19783;BME280;10051;40.294;-3.754;2023-04-26T05:01:36;94054.94;;;18.39;46.89
19783;BME280;10051;40.294;-3.754;2023-04-26T05:04:03;94055.94;;;18.01;48.00
19783;BME280;10051;40.294;-3.754;2023-04-26T05:06:29;93998.94;;;17.56;48.40
19783;BME280;10051;40.294;-3.754;2023-04-26T05:08:56;94050.34;;;17.94;48.48
19783;BME280;10051;40.294;-3.754;2023-04-26T05:11:23;94010.91;;;17.83;48.52
19783;BME280;10051;40.294;-3.754;2023-04-26T05:13:48;94081.09;;;18.37;48.05
19783;BME280;10051;40.294;-3.754;2023-04-26T05:16:17;94054.72;;;18.32;48.11
19783;BME280;10051;40.294;-3.754;2023-04-26T05:18:45;94070.16;;;18.51;48.02
19783;BME280;10051;40.294;-3.754;2023-04-26T05:21:11;94081.25;;;18.53;48.24
19783;BME280;10051;40.294;-3.754;2023-04-26T05:23:37;94035.19;;;18.28;48.68
19783;BME280;10051;40.294;-3.754;2023-04-26T05:26:03;94005.09;;;18.15;48.46
19783;BME280;10051;40.294;-3.754;2023-04-26T05:28:30;94069.28;;;18.47;48.14
19783;BME280;10051;40.294;-3.754;2023-04-26T05:30:55;94062.22;;;18.18;48.54
19783;BME280;10051;40.294;-3.754;2023-04-26T05:33:21;94039.94;;;18.10;48.46
19783;BME280;10051;40.294;-3.754;2023-04-26T05:35:47;94084.66;;;18.29;48.71
19783;BME280;10051;40.294;-3.754;2023-04-26T05:38:12;94043.38;;;17.89;48.55
19783;BME280;10051;40.294;-3.754;2023-04-26T05:40:38;94074.50;;;17.89;49.15
19783;BME280;10051;40.294;-3.754;2023-04-26T05:43:03;94082.47;;;17.89;49.23
19783;BME280;10051;40.294;-3.754;2023-04-26T05:45:29;94069.91;;;17.77;49.19
19783;BME280;10051;40.294;-3.754;2023-04-26T05:47:54;94053.91;;;17.86;48.38
19783;BME280;10051;40.294;-3.754;2023-04-26T05:50:20;94058.97;;;18.12;48.09
19783;BME280;10051;40.294;-3.754;2023-04-26T05:52:45;94089.97;;;18.41;47.82
19783;BME280;10051;40.294;-3.754;2023-04-26T05:55:11;94084.94;;;18.86;46.87
19783;BME280;10051;40.294;-3.754;2023-04-26T05:57:38;94070.25;;;20.11;43.76
19783;BME280;10051;40.294;-3.754;2023-04-26T06:00:04;94101.97;;;22.36;39.11
19783;BME280;10051;40.294;-3.754;2023-04-26T06:02:30;94076.53;;;22.26;38.42
19783;BME280;10051;40.294;-3.754;2023-04-26T06:04:55;94102.69;;;21.93;39.43
19783;BME280;10051;40.294;-3.754;2023-04-26T06:07:21;94080.97;;;21.39;40.67
19783;BME280;10051;40.294;-3.754;2023-04-26T06:09:46;94087.03;;;21.04;41.43
19783;BME280;10051;40.294;-3.754;2023-04-26T06:12:15;94102.72;;;20.58;43.10
19783;BME280;10051;40.294;-3.754;2023-04-26T06:14:40;94099.09;;;20.05;44.59
19783;BME280;10051;40.294;-3.754;2023-04-26T06:17:06;94098.88;;;19.98;45.04
19783;BME280;10051;40.294;-3.754;2023-04-26T06:19:32;94085.94;;;19.72;45.68
19783;BME280;10051;40.294;-3.754;2023-04-26T06:21:57;94093.00;;;19.52;47.00
19783;BME280;10051;40.294;-3.754;2023-04-26T06:24:23;94076.47;;;19.46;46.68
19783;BME280;10051;40.294;-3.754;2023-04-26T06:26:50;94114.25;;;19.89;45.91
19783;BME280;10051;40.294;-3.754;2023-04-26T06:29:16;94110.78;;;20.01;45.19
19783;BME280;10051;40.294;-3.754;2023-04-26T06:31:41;94092.69;;;19.94;43.89
19783;BME280;10051;40.294;-3.754;2023-04-26T06:34:07;94097.03;;;19.86;43.30
19783;BME280;10051;40.294;-3.754;2023-04-26T06:36:32;94085.44;;;19.54;43.41
19783;BME280;10051;40.294;-3.754;2023-04-26T06:38:58;94050.50;;;19.30;43.35
19783;BME280;10051;40.294;-3.754;2023-04-26T06:41:23;94115.34;;;19.47;44.06
19783;BME280;10051;40.294;-3.754;2023-04-26T06:43:49;94105.50;;;19.10;44.92
19783;BME280;10051;40.294;-3.754;2023-04-26T06:46:14;94076.81;;;18.70;45.40
19783;BME280;10051;40.294;-3.754;2023-04-26T06:48:40;94075.03;;;18.62;45.96
19783;BME280;10051;40.294;-3.754;2023-04-26T06:51:06;94096.88;;;18.55;46.40
19783;BME280;10051;40.294;-3.754;2023-04-26T06:53:33;94094.91;;;18.64;45.73
19783;BME280;10051;40.294;-3.754;2023-04-26T06:55:59;94137.31;;;18.82;46.07
19783;BME280;10051;40.294;-3.754;2023-04-26T06:58:24;94125.38;;;19.00;45.72
19783;BME280;10051;40.294;-3.754;2023-04-26T07:00:52;94104.16;;;18.92;45.82
19783;BME280;10051;40.294;-3.754;2023-04-26T07:03:18;94089.41;;;19.07;45.18
19783;BME280;10051;40.294;-3.754;2023-04-26T07:05:46;94060.53;;;19.09;44.30
19783;BME280;10051;40.294;-3.754;2023-04-26T07:08:12;94131.41;;;19.75;44.23
19783;BME280;10051;40.294;-3.754;2023-04-26T07:10:40;94142.38;;;19.86;43.21
19783;BME280;10051;40.294;-3.754;2023-04-26T07:13:05;94140.03;;;19.97;43.28
19783;BME280;10051;40.294;-3.754;2023-04-26T07:15:31;94104.53;;;19.68;43.85
19783;BME280;10051;40.294;-3.754;2023-04-26T07:17:57;94113.16;;;19.90;43.21
19783;BME280;10051;40.294;-3.754;2023-04-26T07:20:23;94107.69;;;19.86;42.86
19783;BME280;10051;40.294;-3.754;2023-04-26T07:22:49;94085.06;;;19.68;42.90
19783;BME280;10051;40.294;-3.754;2023-04-26T07:25:15;94116.34;;;20.08;42.30
19783;BME280;10051;40.294;-3.754;2023-04-26T07:27:41;94144.91;;;20.36;41.66
19783;BME280;10051;40.294;-3.754;2023-04-26T07:30:07;94103.78;;;20.25;41.34
19783;BME280;10051;40.294;-3.754;2023-04-26T07:32:34;94145.44;;;20.58;40.76
19783;BME280;10051;40.294;-3.754;2023-04-26T07:35:04;94157.47;;;20.80;41.04
19783;BME280;10051;40.294;-3.754;2023-04-26T07:37:30;94126.41;;;20.59;40.73
19783;BME280;10051;40.294;-3.754;2023-04-26T07:39:56;94167.06;;;20.97;40.39
19783;BME280;10051;40.294;-3.754;2023-04-26T07:42:21;94172.41;;;20.97;40.64
19783;BME280;10051;40.294;-3.754;2023-04-26T07:44:47;94166.97;;;20.93;40.66
19783;BME280;10051;40.294;-3.754;2023-04-26T07:47:13;94132.81;;;20.71;40.53
19783;BME280;10051;40.294;-3.754;2023-04-26T07:49:39;94156.09;;;21.02;40.53
19783;BME280;10051;40.294;-3.754;2023-04-26T07:52:05;94166.38;;;21.32;39.83
19783;BME280;10051;40.294;-3.754;2023-04-26T07:54:32;94151.00;;;21.29;39.58
19783;BME280;10051;40.294;-3.754;2023-04-26T07:56:57;94116.88;;;21.06;39.52
19783;BME280;10051;40.294;-3.754;2023-04-26T07:59:23;94176.84;;;21.57;39.15
19783;BME280;10051;40.294;-3.754;2023-04-26T08:01:48;94125.31;;;21.41;39.15
19783;BME280;10051;40.294;-3.754;2023-04-26T08:04:14;94112.19;;;21.35;39.80
19783;BME280;10051;40.294;-3.754;2023-04-26T08:06:40;94178.22;;;21.83;39.71
19783;BME280;10051;40.294;-3.754;2023-04-26T08:09:09;94144.53;;;21.82;39.17
19783;BME280;10051;40.294;-3.754;2023-04-26T08:11:36;94171.47;;;22.09;39.41
19783;BME280;10051;40.294;-3.754;2023-04-26T08:14:01;94127.16;;;21.92;38.54
19783;BME280;10051;40.294;-3.754;2023-04-26T08:16:27;94171.31;;;22.41;38.35
19783;BME280;10051;40.294;-3.754;2023-04-26T08:18:52;94160.47;;;22.14;38.03
19783;BME280;10051;40.294;-3.754;2023-04-26T08:21:19;94166.81;;;22.25;37.86
19783;BME280;10051;40.294;-3.754;2023-04-26T08:23:45;94150.88;;;22.33;38.30
19783;BME280;10051;40.294;-3.754;2023-04-26T08:26:11;94105.66;;;22.27;37.95
19783;BME280;10051;40.294;-3.754;2023-04-26T08:28:36;94159.28;;;22.74;36.99
19783;BME280;10051;40.294;-3.754;2023-04-26T08:31:02;94136.50;;;22.61;36.98
19783;BME280;10051;40.294;-3.754;2023-04-26T08:33:28;94103.50;;;22.56;37.39
19783;BME280;10051;40.294;-3.754;2023-04-26T08:35:54;94136.69;;;22.95;37.00
19783;BME280;10051;40.294;-3.754;2023-04-26T08:38:20;94101.13;;;22.98;36.65
19783;BME280;10051;40.294;-3.754;2023-04-26T08:40:46;94130.03;;;23.35;36.21
19783;BME280;10051;40.294;-3.754;2023-04-26T08:43:14;94129.88;;;23.51;35.81
19783;BME280;10051;40.294;-3.754;2023-04-26T08:45:44;94140.38;;;23.60;35.58
19783;BME280;10051;40.294;-3.754;2023-04-26T08:48:18;94161.59;;;23.72;35.17
19783;BME280;10051;40.294;-3.754;2023-04-26T08:50:44;94160.22;;;23.82;35.70
19783;BME280;10051;40.294;-3.754;2023-04-26T08:53:13;94142.91;;;23.80;35.29
19783;BME280;10051;40.294;-3.754;2023-04-26T08:55:40;94156.25;;;23.99;36.03
19783;BME280;10051;40.294;-3.754;2023-04-26T08:58:07;94156.72;;;24.09;35.48
19783;BME280;10051;40.294;-3.754;2023-04-26T09:00:33;94142.16;;;24.10;35.19
19783;BME280;10051;40.294;-3.754;2023-04-26T09:03:04;94169.28;;;24.31;35.06
19783;BME280;10051;40.294;-3.754;2023-04-26T09:05:29;94138.41;;;24.14;34.78
19783;BME280;10051;40.294;-3.754;2023-04-26T09:07:56;94158.63;;;24.39;34.59
19783;BME280;10051;40.294;-3.754;2023-04-26T09:10:25;94166.69;;;24.39;34.97
19783;BME280;10051;40.294;-3.754;2023-04-26T09:12:52;94167.41;;;24.35;35.24
19783;BME280;10051;40.294;-3.754;2023-04-26T09:15:19;94177.94;;;24.48;35.04
19783;BME280;10051;40.294;-3.754;2023-04-26T09:17:46;94153.34;;;24.46;35.00
19783;BME280;10051;40.294;-3.754;2023-04-26T09:20:30;94169.84;;;24.82;34.84
19783;BME280;10051;40.294;-3.754;2023-04-26T09:23:06;94173.41;;;24.93;34.24
19783;BME280;10051;40.294;-3.754;2023-04-26T09:25:33;94189.72;;;25.15;34.02
19783;BME280;10051;40.294;-3.754;2023-04-26T09:28:00;94184.00;;;25.17;33.80
19783;BME280;10051;40.294;-3.754;2023-04-26T09:30:27;94189.38;;;25.17;34.04
19783;BME280;10051;40.294;-3.754;2023-04-26T09:32:57;94125.63;;;24.79;33.90
19783;BME280;10051;40.294;-3.754;2023-04-26T09:35:28;94152.97;;;24.85;33.71
19783;BME280;10051;40.294;-3.754;2023-04-26T09:38:02;94153.78;;;24.89;33.95
19783;BME280;10051;40.294;-3.754;2023-04-26T09:40:30;94152.34;;;25.03;33.36
19783;BME280;10051;40.294;-3.754;2023-04-26T09:43:01;94155.53;;;25.16;34.65
19783;BME280;10051;40.294;-3.754;2023-04-26T09:45:28;94183.50;;;25.52;33.80
19783;BME280;10051;40.294;-3.754;2023-04-26T09:47:54;94145.72;;;25.38;33.56
19783;BME280;10051;40.294;-3.754;2023-04-26T09:50:27;94183.72;;;25.85;33.44
19783;BME280;10051;40.294;-3.754;2023-04-26T09:52:54;94153.69;;;25.79;33.37
19783;BME280;10051;40.294;-3.754;2023-04-26T09:55:30;94161.47;;;25.99;33.06
19783;BME280;10051;40.294;-3.754;2023-04-26T09:57:56;94158.13;;;26.17;31.93
19783;BME280;10051;40.294;-3.754;2023-04-26T10:00:26;94041.91;;;25.37;31.73
19783;BME280;10051;40.294;-3.754;2023-04-26T10:02:53;94157.72;;;26.18;31.34
19783;BME280;10051;40.294;-3.754;2023-04-26T10:05:20;94177.75;;;26.28;31.69
19783;BME280;10051;40.294;-3.754;2023-04-26T10:07:46;94126.84;;;26.01;31.57
19783;BME280;10051;40.294;-3.754;2023-04-26T10:10:15;94147.75;;;26.30;31.54
19783;BME280;10051;40.294;-3.754;2023-04-26T10:12:41;94149.31;;;26.27;31.14
19783;BME280;10051;40.294;-3.754;2023-04-26T10:15:10;94170.13;;;26.45;31.20
19783;BME280;10051;40.294;-3.754;2023-04-26T10:17:37;94140.09;;;26.42;31.39
19783;BME280;10051;40.294;-3.754;2023-04-26T10:20:05;94113.09;;;26.28;30.22
19783;BME280;10051;40.294;-3.754;2023-04-26T10:22:42;94132.78;;;26.39;30.92
19783;BME280;10051;40.294;-3.754;2023-04-26T10:25:09;94157.09;;;26.61;30.15
19783;BME280;10051;40.294;-3.754;2023-04-26T10:30:16;94159.03;;;26.79;28.67
19783;BME280;10051;40.294;-3.754;2023-04-26T10:35:24;94078.84;;;26.25;29.60
19783;BME280;10051;40.294;-3.754;2023-04-26T10:45:36;94107.78;;;26.61;28.82
19783;BME280;10051;40.294;-3.754;2023-04-26T10:48:18;94134.41;;;26.95;29.22
19783;BME280;10051;40.294;-3.754;2023-04-26T10:51:10;94131.75;;;27.09;29.08
19783;BME280;10051;40.294;-3.754;2023-04-26T10:59:14;94096.25;;;27.25;22.25
19783;BME280;10051;40.294;-3.754;2023-04-26T11:01:43;94084.72;;;27.25;22.98
19783;BME280;10051;40.294;-3.754;2023-04-26T11:04:10;94112.84;;;27.49;22.84
19783;BME280;10051;40.294;-3.754;2023-04-26T11:06:52;94132.88;;;27.66;21.79
19783;BME280;10051;40.294;-3.754;2023-04-26T11:09:47;94110.88;;;27.60;22.42
19783;BME280;10051;40.294;-3.754;2023-04-26T11:12:14;94082.00;;;27.36;23.00
19783;BME280;10051;40.294;-3.754;2023-04-26T11:14:41;94098.56;;;27.59;23.28
19783;BME280;10051;40.294;-3.754;2023-04-26T11:17:11;94075.41;;;27.62;23.40
19783;BME280;10051;40.294;-3.754;2023-04-26T11:19:37;94119.28;;;27.99;23.45
19783;BME280;10051;40.294;-3.754;2023-04-26T11:22:05;94073.03;;;27.79;23.57
19783;BME280;10051;40.294;-3.754;2023-04-26T11:24:32;94114.19;;;28.15;23.27
19783;BME280;10051;40.294;-3.754;2023-04-26T11:27:01;94055.59;;;27.94;23.75
19783;BME280;10051;40.294;-3.754;2023-04-26T11:29:32;94090.66;;;28.12;23.79
19783;BME280;10051;40.294;-3.754;2023-04-26T11:31:58;94068.69;;;27.99;24.09
19783;BME280;10051;40.294;-3.754;2023-04-26T11:34:33;94074.03;;;28.10;24.62
19783;BME280;10051;40.294;-3.754;2023-04-26T11:37:02;94072.50;;;28.20;24.35
19783;BME280;10051;40.294;-3.754;2023-04-26T11:39:32;94060.56;;;28.14;23.33
19783;BME280;10051;40.294;-3.754;2023-04-26T11:42:08;94093.25;;;28.38;24.06
19783;BME280;10051;40.294;-3.754;2023-04-26T11:44:34;94047.44;;;28.12;22.85
19783;BME280;10051;40.294;-3.754;2023-04-26T11:47:00;94086.25;;;28.47;22.44
19783;BME280;10051;40.294;-3.754;2023-04-26T11:49:30;94043.88;;;28.30;21.98
19783;BME280;10051;40.294;-3.754;2023-04-26T11:51:56;94070.34;;;28.57;22.37
19783;BME280;10051;40.294;-3.754;2023-04-26T11:54:29;94052.19;;;28.54;22.56
19783;BME280;10051;40.294;-3.754;2023-04-26T11:56:58;94050.59;;;28.60;21.42
19783;BME280;10051;40.294;-3.754;2023-04-26T11:59:25;93948.69;;;27.93;20.86
19783;BME280;10051;40.294;-3.754;2023-04-26T12:01:51;94065.50;;;28.90;18.70
19783;BME280;10051;40.294;-3.754;2023-04-26T12:04:17;94040.16;;;28.62;19.79
19783;BME280;10051;40.294;-3.754;2023-04-26T12:06:44;94068.16;;;28.93;19.27
19783;BME280;10051;40.294;-3.754;2023-04-26T12:09:11;94053.94;;;28.86;18.71
19783;BME280;10051;40.294;-3.754;2023-04-26T12:11:39;94038.56;;;28.75;20.03
19783;BME280;10051;40.294;-3.754;2023-04-26T12:14:05;94065.34;;;29.04;18.62
19783;BME280;10051;40.294;-3.754;2023-04-26T12:16:37;94058.03;;;29.05;17.38
19783;BME280;10051;40.294;-3.754;2023-04-26T12:19:07;94070.28;;;29.17;18.68
19783;BME280;10051;40.294;-3.754;2023-04-26T12:21:41;94062.59;;;29.12;18.00
19783;BME280;10051;40.294;-3.754;2023-04-26T12:24:07;94023.28;;;28.96;18.11
19783;BME280;10051;40.294;-3.754;2023-04-26T12:26:42;93996.78;;;28.80;18.13
19783;BME280;10051;40.294;-3.754;2023-04-26T12:29:11;94062.41;;;29.33;18.08
19783;BME280;10051;40.294;-3.754;2023-04-26T12:31:36;94056.16;;;29.40;18.74
19783;BME280;10051;40.294;-3.754;2023-04-26T12:34:02;94004.97;;;29.15;19.25
19783;BME280;10051;40.294;-3.754;2023-04-26T12:36:28;94046.75;;;29.52;18.96
19783;BME280;10051;40.294;-3.754;2023-04-26T12:38:54;94040.22;;;29.46;17.41
19783;BME280;10051;40.294;-3.754;2023-04-26T12:41:20;94049.50;;;29.48;17.81
19783;BME280;10051;40.294;-3.754;2023-04-26T12:43:47;94052.53;;;29.54;18.10
19783;BME280;10051;40.294;-3.754;2023-04-26T12:46:12;94051.06;;;29.46;18.95
19783;BME280;10051;40.294;-3.754;2023-04-26T12:48:38;94024.06;;;29.38;19.51
19783;BME280;10051;40.294;-3.754;2023-04-26T12:51:03;94017.47;;;29.40;19.14
19783;BME280;10051;40.294;-3.754;2023-04-26T12:53:29;94042.00;;;29.60;19.62
19783;BME280;10051;40.294;-3.754;2023-04-26T12:55:55;94042.38;;;29.62;19.76
19783;BME280;10051;40.294;-3.754;2023-04-26T12:58:20;94007.00;;;29.45;19.40
19783;BME280;10051;40.294;-3.754;2023-04-26T13:00:47;93952.69;;;29.21;19.51
19783;BME280;10051;40.294;-3.754;2023-04-26T13:03:12;94022.03;;;29.81;19.46
19783;BME280;10051;40.294;-3.754;2023-04-26T13:05:39;94003.56;;;29.72;18.55
19783;BME280;10051;40.294;-3.754;2023-04-26T13:08:05;93960.63;;;29.40;19.19
19783;BME280;10051;40.294;-3.754;2023-04-26T13:10:31;93966.97;;;29.60;19.78